FDB756 LTFM-OMDB
Flight info
| Callsign | FDB756 |
|---|---|
| Flight time | N/A |
| Altitude | 35000 |
| Route | RATVU1D/35L RATVU UT35 AYT UA16 TOMBI M855 RASDA A16 CVO A727 SEMRU M872 PMA/N0458F370 M872 BDB DCT RAPMA DCT GOLGU DCT UKRAG G783 ELUDA/N0467F350 G783 ASPED Q308 KIPOK Q568 IMPED |
| Aircraft | B38M/M-SDE1FGHILORVWXY/HB1 |
Departure
| Time | N/A |
|---|---|
| Airport | İstanbul Airport (LTFM) |
Arrival
| Time | 2026-04-23 03:08 |
|---|---|
| Airport | Dubai International Airport (OMDB) |
| Time | Latitude | Longitude | Altitude | Speed | Heading |
|---|---|---|---|---|---|
| 2026-04-23 02:49 | 25.11398 | 55.89673 | 28666 ft | 346 kts | 308° |
| 2026-04-23 02:49 | 25.12992 | 55.87711 | 27973 ft | 344 kts | 308° |
| 2026-04-23 02:49 | 25.14575 | 55.85751 | 27280 ft | 342 kts | 307° |
| 2026-04-23 02:50 | 25.16024 | 55.83703 | 26562 ft | 340 kts | 302° |
| 2026-04-23 02:50 | 25.17328 | 55.81544 | 25771 ft | 341 kts | 299° |
| 2026-04-23 02:50 | 25.18573 | 55.79329 | 24984 ft | 341 kts | 298° |
| 2026-04-23 02:50 | 25.19797 | 55.77098 | 24199 ft | 342 kts | 298° |
| 2026-04-23 02:51 | 25.21032 | 55.74844 | 23386 ft | 343 kts | 297° |
| 2026-04-23 02:51 | 25.22266 | 55.72604 | 22586 ft | 343 kts | 297° |
| 2026-04-23 02:51 | 25.23503 | 55.70370 | 21844 ft | 342 kts | 298° |
| 2026-04-23 02:51 | 25.24745 | 55.68141 | 21129 ft | 341 kts | 298° |
| 2026-04-23 02:52 | 25.25985 | 55.65924 | 20427 ft | 339 kts | 298° |
| 2026-04-23 02:52 | 25.27219 | 55.63714 | 19718 ft | 337 kts | 299° |
| 2026-04-23 02:52 | 25.28441 | 55.61521 | 18997 ft | 335 kts | 298° |
| 2026-04-23 02:52 | 25.29625 | 55.59293 | 18273 ft | 332 kts | 291° |
| 2026-04-23 02:53 | 25.30121 | 55.56867 | 17553 ft | 325 kts | 266° |
| 2026-04-23 02:53 | 25.29516 | 55.54524 | 16920 ft | 320 kts | 238° |
| 2026-04-23 02:53 | 25.27948 | 55.52825 | 16317 ft | 318 kts | 210° |
| 2026-04-23 02:53 | 25.25885 | 55.51986 | 15717 ft | 319 kts | 189° |
| 2026-04-23 02:54 | 25.23696 | 55.52220 | 15118 ft | 322 kts | 160° |
| 2026-04-23 02:54 | 25.21874 | 55.53620 | 14618 ft | 322 kts | 131° |
| 2026-04-23 02:54 | 25.20727 | 55.55741 | 14135 ft | 319 kts | 116° |
| 2026-04-23 02:54 | 25.19857 | 55.57963 | 13631 ft | 314 kts | 115° |
| 2026-04-23 02:55 | 25.19052 | 55.60107 | 13166 ft | 309 kts | 114° |
| 2026-04-23 02:55 | 25.18240 | 55.62177 | 12785 ft | 264 kts | 118° |
| 2026-04-23 02:55 | 25.17435 | 55.64053 | 12219 ft | 274 kts | 115° |
| 2026-04-23 02:55 | 25.16716 | 55.65990 | 11733 ft | 275 kts | 113° |
| 2026-04-23 02:56 | 25.15990 | 55.67932 | 11260 ft | 275 kts | 117° |
| 2026-04-23 02:56 | 25.15092 | 55.69782 | 10886 ft | 270 kts | 123° |
| 2026-04-23 02:56 | 25.14096 | 55.71516 | 10501 ft | 265 kts | 125° |
| 2026-04-23 02:56 | 25.13099 | 55.73210 | 10121 ft | 262 kts | 125° |
| 2026-04-23 02:57 | 25.12135 | 55.74885 | 9784 ft | 259 kts | 123° |
| 2026-04-23 02:57 | 25.11189 | 55.76564 | 9405 ft | 259 kts | 123° |
| 2026-04-23 02:57 | 25.10244 | 55.78250 | 9045 ft | 259 kts | 123° |
| 2026-04-23 02:57 | 25.09304 | 55.79932 | 8693 ft | 259 kts | 123° |
| 2026-04-23 02:58 | 25.08356 | 55.81626 | 8335 ft | 259 kts | 124° |
| 2026-04-23 02:58 | 25.07371 | 55.83275 | 7985 ft | 257 kts | 129° |
| 2026-04-23 02:58 | 25.06090 | 55.84603 | 7632 ft | 253 kts | 154° |
| 2026-04-23 02:58 | 25.04424 | 55.85000 | 7308 ft | 244 kts | 188° |
| 2026-04-23 02:59 | 25.02843 | 55.84429 | 7014 ft | 239 kts | 211° |
| 2026-04-23 02:59 | 25.01495 | 55.83388 | 6706 ft | 235 kts | 227° |
| 2026-04-23 02:59 | 25.00767 | 55.81825 | 6396 ft | 233 kts | 263° |
| 2026-04-23 02:59 | 25.01041 | 55.80102 | 6202 ft | 227 kts | 292° |
| 2026-04-23 03:00 | 25.01791 | 55.78562 | 6032 ft | 231 kts | 298° |
| 2026-04-23 03:00 | 25.02603 | 55.77031 | 5895 ft | 230 kts | 298° |
| 2026-04-23 03:00 | 25.03415 | 55.75531 | 5873 ft | 229 kts | 300° |
| 2026-04-23 03:00 | 25.04249 | 55.74028 | 5872 ft | 230 kts | 299° |
| 2026-04-23 03:01 | 25.05088 | 55.72529 | 5862 ft | 230 kts | 300° |
| 2026-04-23 03:01 | 25.05933 | 55.71025 | 5863 ft | 231 kts | 300° |
| 2026-04-23 03:01 | 25.06785 | 55.69514 | 5863 ft | 230 kts | 299° |
| 2026-04-23 03:01 | 25.07625 | 55.68012 | 5840 ft | 232 kts | 300° |
| 2026-04-23 03:02 | 25.08481 | 55.66483 | 5592 ft | 235 kts | 299° |
| 2026-04-23 03:02 | 25.09343 | 55.64948 | 5220 ft | 236 kts | 300° |
| 2026-04-23 03:02 | 25.10209 | 55.63411 | 4891 ft | 235 kts | 299° |
| 2026-04-23 03:02 | 25.11065 | 55.61887 | 4566 ft | 233 kts | 300° |
| 2026-04-23 03:03 | 25.11912 | 55.60374 | 4252 ft | 232 kts | 300° |
| 2026-04-23 03:03 | 25.12757 | 55.58857 | 3944 ft | 230 kts | 300° |
| 2026-04-23 03:03 | 25.13595 | 55.57359 | 3641 ft | 229 kts | 299° |
| 2026-04-23 03:03 | 25.14428 | 55.55872 | 3336 ft | 228 kts | 301° |
| 2026-04-23 03:04 | 25.15258 | 55.54396 | 3033 ft | 227 kts | 300° |
| 2026-04-23 03:04 | 25.16084 | 55.52917 | 2733 ft | 226 kts | 301° |
| 2026-04-23 03:04 | 25.16901 | 55.51452 | 2430 ft | 225 kts | 301° |
| 2026-04-23 03:04 | 25.17716 | 55.49990 | 2141 ft | 223 kts | 302° |
| 2026-04-23 03:05 | 25.18530 | 55.48536 | 1850 ft | 221 kts | 303° |
| 2026-04-23 03:05 | 25.19332 | 55.47103 | 1567 ft | 219 kts | 303° |
| 2026-04-23 03:05 | 25.20124 | 55.45687 | 1285 ft | 212 kts | 303° |
| 2026-04-23 03:05 | 25.20854 | 55.44372 | 1041 ft | 190 kts | 303° |
| 2026-04-23 03:06 | 25.21504 | 55.43206 | 794 ft | 167 kts | 303° |
| 2026-04-23 03:06 | 25.22071 | 55.42186 | 591 ft | 146 kts | 304° |
| 2026-04-23 03:06 | 25.22595 | 55.41247 | 405 ft | 144 kts | 305° |
| 2026-04-23 03:06 | 25.23130 | 55.40309 | 215 ft | 143 kts | 307° |
| 2026-04-23 03:07 | 25.23656 | 55.39368 | 53 ft | 144 kts | 306° |
| 2026-04-23 03:07 | 25.24160 | 55.38464 | 25 ft | 128 kts | 304° |
| 2026-04-23 03:07 | 25.24522 | 55.37814 | 19 ft | 71 kts | 302° |
| 2026-04-23 03:07 | 25.24740 | 55.37428 | 12 ft | 56 kts | 308° |
| 2026-04-23 03:08 | 25.24938 | 55.37252 | 8 ft | 16 kts | 332° |
| 2026-04-23 03:08 | 25.25028 | 55.37199 | 8 ft | 13 kts | 332° |
| 2026-04-23 03:08 | 25.25107 | 55.37123 | 8 ft | 18 kts | 302° |
| 2026-04-23 03:08 | 25.25186 | 55.36980 | 7 ft | 26 kts | 301° |
| 2026-04-23 03:09 | 25.25284 | 55.36804 | 5 ft | 28 kts | 302° |
| 2026-04-23 03:09 | 25.25391 | 55.36610 | 4 ft | 31 kts | 302° |
| 2026-04-23 03:09 | 25.25506 | 55.36403 | 3 ft | 33 kts | 302° |
| 2026-04-23 03:09 | 25.25624 | 55.36189 | 2 ft | 31 kts | 301° |
| 2026-04-23 03:10 | 25.25735 | 55.35990 | 1 ft | 31 kts | 302° |
| 2026-04-23 03:10 | 25.25848 | 55.35788 | 1 ft | 31 kts | 301° |
| 2026-04-23 03:10 | 25.25956 | 55.35591 | 1 ft | 28 kts | 302° |
| 2026-04-23 03:10 | 25.26051 | 55.35419 | 1 ft | 25 kts | 302° |
| 2026-04-23 03:11 | 25.26135 | 55.35286 | 0 ft | 15 kts | 326° |
| 2026-04-23 03:11 | 25.26214 | 55.35313 | 1 ft | 11 kts | 31° |
| 2026-04-23 03:11 | 25.26284 | 55.35359 | 1 ft | 14 kts | 31° |
| 2026-04-23 03:11 | 25.26365 | 55.35413 | 0 ft | 5 kts | 32° |
| 2026-04-23 03:12 | 25.26395 | 55.35434 | 1 ft | 8 kts | 31° |
| 2026-04-23 03:12 | 25.26476 | 55.35487 | 0 ft | 17 kts | 30° |
| 2026-04-23 03:12 | 25.26563 | 55.35542 | 1 ft | 5 kts | 31° |
| 2026-04-23 03:12 | 25.26577 | 55.35552 | 1 ft | 0 kts | 32° |